Time;durP1;ratioP1;P1;durP2;ratioP2;P2;SDS_P1;SDS_P2;PMS_P1;PMS_P2;Temp;Humidity;BMP_temperature;BMP_pressure;BME280_temperature;BME280_humidity;BME280_pressure;Samples;Min_cycle;Max_cycle;Signal;HPM_P1;HPM_P2
2022/03/09 00:00:42;;;;;;;;;;;;;;;21.21;21.97;96091.69;10408993;28;1938;-72
2022/03/09 00:05:43;;;;;;;;;;;;;;;21.18;22.02;96098.31;10408691;28;1855;-73
2022/03/09 00:10:45;;;;;;;;;;;;;;;21.17;22.03;96106.47;10370222;28;1955;-72
2022/03/09 00:15:45;;;;;;;;;;;;;;;21.20;21.97;96119.94;10406499;28;1832;-72
2022/03/09 00:20:46;;;;;;;;;;;;;;;21.21;21.81;96123.34;10389173;28;1961;-72
2022/03/09 00:25:46;;;;;;;;;;;;;;;21.21;21.85;96110.94;10379989;28;1803;-71
2022/03/09 00:30:47;;;;;;;;;;;;;;;21.19;21.92;96117.53;10378674;28;1941;-69
2022/03/09 00:35:48;;;;;;;;;;;;;;;21.19;21.92;96110.44;10409532;28;1977;-72
2022/03/09 00:40:50;;;;;;;;;;;;;;;21.23;21.92;96121.22;10393200;28;1914;-73
2022/03/09 00:45:50;;;;;;;;;;;;;;;21.21;21.96;96113.59;10389518;28;1831;-72
2022/03/09 00:50:50;;;;;;;;;;;;;;;21.23;21.83;96115.94;10366186;28;1814;-73
2022/03/09 00:55:51;;;;;;;;;;;;;;;21.23;21.73;96113.31;10394426;28;1917;-72
2022/03/09 01:00:51;;;;;;;;;;;;;;;21.25;21.58;96111.19;10405078;28;1968;-72
2022/03/09 01:05:52;;;;;;;;;;;;;;;21.23;21.77;96118.59;10400430;28;1932;-73
2022/03/09 01:10:53;;;;;;;;;;;;;;;21.24;21.67;96107.78;10378399;28;1866;-72
2022/03/09 01:15:53;;;;;;;;;;;;;;;21.21;21.46;96104.88;10389915;28;1883;-73
2022/03/09 01:20:53;;;;;;;;;;;;;;;21.19;21.63;96099.09;10379533;28;1996;-72
2022/03/09 01:25:54;;;;;;;;;;;;;;;21.22;21.55;96095.94;10371747;28;2207;-72
2022/03/09 01:30:58;;;;;;;;;;;;;;;21.24;21.67;96085.91;10402044;28;1951;-73
2022/03/09 01:35:58;;;;;;;;;;;;;;;21.23;21.45;96085.09;10371131;28;2163;-72
2022/03/09 01:40:58;;;;;;;;;;;;;;;21.20;21.66;96093.56;10372658;28;1972;-72
2022/03/09 01:45:59;;;;;;;;;;;;;;;21.20;21.72;96080.38;10382695;28;1911;-73
2022/03/09 01:51:00;;;;;;;;;;;;;;;21.19;21.51;96078.78;10406434;28;1969;-72
2022/03/09 01:56:01;;;;;;;;;;;;;;;21.18;21.55;96086.97;10398638;28;1883;-71
2022/03/09 02:01:01;;;;;;;;;;;;;;;21.20;21.36;96085.66;10383284;28;1973;-70
2022/03/09 02:06:02;;;;;;;;;;;;;;;21.24;21.48;96075.34;10412584;22;3028;-47
2022/03/09 02:11:03;;;;;;;;;;;;;;;21.21;21.58;96075.88;10442430;23;2205;-67
2022/03/09 02:16:04;;;;;;;;;;;;;;;21.22;21.49;96073.00;10439028;28;1951;-67
2022/03/09 02:21:25;;;;;;;;;;;;;;;21.20;21.57;96084.88;10437185;28;1967;-65
2022/03/09 02:26:33;;;;;;;;;;;;;;;21.19;21.57;96080.63;10408404;28;2414;-66
2022/03/09 02:31:34;;;;;;;;;;;;;;;21.20;21.46;96090.94;10424268;28;1990;-66
2022/03/09 02:36:36;;;;;;;;;;;;;;;21.18;21.43;96086.97;10429629;28;1981;-66
2022/03/09 02:41:37;;;;;;;;;;;;;;;21.19;21.44;96080.63;10422530;28;2009;-66
2022/03/09 02:46:38;;;;;;;;;;;;;;;21.20;21.47;96080.38;10405151;28;1892;-66
2022/03/09 02:51:38;;;;;;;;;;;;;;;21.19;21.30;96078.78;10414484;28;2159;-65
2022/03/09 02:56:38;;;;;;;;;;;;;;;21.19;21.43;96083.28;10421513;28;1870;-66
2022/03/09 03:01:39;;;;;;;;;;;;;;;21.18;21.41;96084.34;10420200;28;2004;-66
2022/03/09 03:06:39;;;;;;;;;;;;;;;21.16;21.55;96071.44;10422913;28;1949;-66
2022/03/09 03:11:39;;;;;;;;;;;;;;;21.15;21.46;96069.06;10413410;28;2058;-66
2022/03/09 03:16:43;;;;;;;;;;;;;;;21.18;21.44;96079.06;10446193;28;1980;-66
2022/03/09 03:21:43;;;;;;;;;;;;;;;21.16;21.41;96081.19;10442145;28;2007;-66
2022/03/09 03:26:44;;;;;;;;;;;;;;;21.15;21.42;96082.22;10426441;28;2020;-66
2022/03/09 03:31:45;;;;;;;;;;;;;;;21.15;21.40;96104.13;10429533;28;1954;-66
2022/03/09 03:36:45;;;;;;;;;;;;;;;21.12;21.35;96106.50;10413874;28;2168;-67
2022/03/09 03:41:45;;;;;;;;;;;;;;;21.17;21.42;96123.09;10430748;28;1993;-65
2022/03/09 03:46:49;;;;;;;;;;;;;;;21.20;21.26;96121.78;10424627;28;1938;-66
2022/03/09 03:51:49;;;;;;;;;;;;;;;21.17;21.28;96111.75;10425309;28;2009;-66
2022/03/09 03:56:54;;;;;;;;;;;;;;;21.17;21.27;96123.09;10443525;28;1999;-66
2022/03/09 04:01:54;;;;;;;;;;;;;;;21.21;21.08;96125.97;10412255;28;1964;-67
2022/03/09 04:06:55;;;;;;;;;;;;;;;21.15;21.24;96134.94;10410962;28;1955;-66
2022/03/09 04:11:56;;;;;;;;;;;;;;;21.17;21.30;96132.84;10415147;28;2006;-66
2022/03/09 04:16:56;;;;;;;;;;;;;;;21.17;21.41;96153.94;10446353;28;1939;-66
2022/03/09 04:21:57;;;;;;;;;;;;;;;21.17;21.37;96151.28;10389539;28;1981;-65
2022/03/09 04:27:01;;;;;;;;;;;;;;;21.17;21.22;96153.94;10446104;28;1971;-66
2022/03/09 04:32:03;;;;;;;;;;;;;;;21.15;21.25;96154.19;10424118;28;1942;-66
2022/03/09 04:37:04;;;;;;;;;;;;;;;21.17;21.24;96164.47;10397064;28;2443;-66
2022/03/09 04:42:05;;;;;;;;;;;;;;;21.12;21.15;96157.38;10411903;28;2001;-66
2022/03/09 04:47:05;;;;;;;;;;;;;;;21.16;21.30;96163.69;10421762;28;1952;-65
2022/03/09 04:52:08;;;;;;;;;;;;;;;21.19;21.23;96157.88;10428580;28;1941;-66
2022/03/09 04:57:12;;;;;;;;;;;;;;;21.19;21.06;96167.63;10425882;28;1958;-65
2022/03/09 05:02:12;;;;;;;;;;;;;;;21.16;21.17;96168.97;10425498;28;1989;-67
2022/03/09 05:07:13;;;;;;;;;;;;;;;21.18;20.98;96166.06;10423256;28;2412;-67
2022/03/09 05:12:13;;;;;;;;;;;;;;;21.22;21.04;96178.44;10427867;28;1759;-66
2022/03/09 05:17:13;;;;;;;;;;;;;;;21.18;20.98;96181.88;10409151;28;2526;-66
2022/03/09 05:22:14;;;;;;;;;;;;;;;21.15;21.21;96192.94;10423191;28;1977;-66
2022/03/09 05:27:15;;;;;;;;;;;;;;;21.05;20.98;96194.56;10426993;28;1943;-67
2022/03/09 05:32:15;;;;;;;;;;;;;;;21.10;21.01;96195.59;10421287;28;2053;-65
2022/03/09 05:37:16;;;;;;;;;;;;;;;21.10;21.10;96201.69;10409031;28;2046;-67
2022/03/09 05:42:19;;;;;;;;;;;;;;;21.12;21.10;96201.41;10425258;28;1922;-67
2022/03/09 05:47:21;;;;;;;;;;;;;;;21.15;21.03;96192.94;10408373;28;1854;-67
2022/03/09 05:52:21;;;;;;;;;;;;;;;21.13;21.16;96185.31;10424303;28;1985;-65
2022/03/09 05:57:26;;;;;;;;;;;;;;;21.14;21.09;96196.66;10426663;28;2022;-65
2022/03/09 06:02:27;;;;;;;;;;;;;;;21.14;21.11;96207.19;10419647;28;2569;-66
2022/03/09 06:07:27;;;;;;;;;;;;;;;21.14;21.16;96197.44;10421184;28;2306;-67
2022/03/09 06:12:28;;;;;;;;;;;;;;;21.16;20.90;96205.09;10421199;28;1907;-66
2022/03/09 06:17:28;;;;;;;;;;;;;;;21.18;20.93;96198.50;10435541;28;1953;-66
2022/03/09 06:22:29;;;;;;;;;;;;;;;21.19;20.98;96200.06;10422472;28;1934;-66
2022/03/09 06:27:38;;;;;;;;;;;;;;;21.21;20.90;96194.50;10416226;28;1861;-67
2022/03/09 06:32:38;;;;;;;;;;;;;;;21.25;20.89;96203.47;10413476;28;1838;-67
2022/03/09 06:37:40;;;;;;;;;;;;;;;21.29;21.05;96207.19;10422737;28;1824;-66
2022/03/09 06:42:40;;;;;;;;;;;;;;;21.29;21.19;96205.31;10405793;28;2011;-65
2022/03/09 06:47:41;;;;;;;;;;;;;;;21.30;21.20;96196.38;10395227;28;1836;-66
2022/03/09 06:52:43;;;;;;;;;;;;;;;21.36;21.37;96203.19;10441124;28;1943;-67
2022/03/09 06:57:43;;;;;;;;;;;;;;;21.40;21.31;96206.88;10430948;28;1779;-67
2022/03/09 07:02:43;;;;;;;;;;;;;;;21.39;21.49;96209.81;10421143;28;2037;-68
2022/03/09 07:07:44;;;;;;;;;;;;;;;21.45;21.40;96203.44;10427179;28;1873;-68
2022/03/09 07:12:45;;;;;;;;;;;;;;;21.42;21.58;96212.69;10426994;28;1856;-67
2022/03/09 07:17:45;;;;;;;;;;;;;;;21.40;21.63;96221.91;10426513;28;1830;-68
2022/03/09 07:22:46;;;;;;;;;;;;;;;21.44;21.70;96220.31;10420354;28;1969;-68
2022/03/09 07:27:46;;;;;;;;;;;;;;;21.44;21.71;96229.03;10423229;28;2070;-68
2022/03/09 07:32:47;;;;;;;;;;;;;;;21.47;21.81;96230.34;10426617;28;1833;-68
2022/03/09 07:37:50;;;;;;;;;;;;;;;21.47;21.68;96228.50;10410286;28;1836;-68
2022/03/09 07:42:50;;;;;;;;;;;;;;;21.51;21.93;96234.03;10401454;28;2073;-69
2022/03/09 07:47:51;;;;;;;;;;;;;;;21.52;21.78;96232.97;10419872;28;1935;-68
2022/03/09 07:52:51;;;;;;;;;;;;;;;21.51;21.72;96244.59;10425229;28;2156;-68
2022/03/09 07:57:52;;;;;;;;;;;;;;;21.53;22.00;96253.81;10410845;28;1878;-69
2022/03/09 08:02:52;;;;;;;;;;;;;;;21.56;21.99;96263.00;10408537;28;1950;-68
2022/03/09 08:07:53;;;;;;;;;;;;;;;21.54;21.93;96263.28;10424844;28;1859;-68
2022/03/09 08:12:54;;;;;;;;;;;;;;;21.56;21.81;96266.44;10458504;22;1837;-62
2022/03/09 08:17:54;;;;;;;;;;;;;;;21.59;22.12;96270.41;10422024;28;2201;-55
2022/03/09 08:22:58;;;;;;;;;;;;;;;21.62;22.24;96273.28;10454216;28;1964;-57
2022/03/09 08:28:00;;;;;;;;;;;;;;;21.64;22.19;96279.09;10454067;28;1907;-61
2022/03/09 08:33:01;;;;;;;;;;;;;;;21.66;22.23;96278.81;10421981;28;1863;-63
2022/03/09 08:38:01;;;;;;;;;;;;;;;21.66;22.23;96281.47;10434916;28;2045;-54
2022/03/09 08:43:01;;;;;;;;;;;;;;;21.65;22.24;96278.06;10439417;28;1914;-57
2022/03/09 08:48:02;;;;;;;;;;;;;;;21.67;22.17;96275.94;10418434;28;2040;-57
2022/03/09 08:53:03;;;;;;;;;;;;;;;21.68;22.16;96276.69;10422858;28;1722;-54
2022/03/09 08:58:03;;;;;;;;;;;;;;;21.68;22.21;96284.63;10438478;28;1895;-58
2022/03/09 09:03:03;;;;;;;;;;;;;;;21.71;22.56;96273.53;10428683;28;1992;-58
2022/03/09 09:08:04;;;;;;;;;;;;;;;21.70;22.30;96266.72;10406274;28;1831;-53
2022/03/09 09:13:05;;;;;;;;;;;;;;;21.73;22.20;96268.78;10440319;28;1782;-58
2022/03/09 09:18:06;;;;;;;;;;;;;;;21.75;22.33;96258.75;10435534;28;1787;-56
2022/03/09 09:23:06;;;;;;;;;;;;;;;21.79;22.54;96270.34;10419813;28;1997;-56
2022/03/09 09:28:07;;;;;;;;;;;;;;;21.80;22.29;96264.03;10422568;28;1771;-54
2022/03/09 09:33:07;;;;;;;;;;;;;;;21.79;22.61;96271.16;10427998;28;1950;-58
2022/03/09 09:38:08;;;;;;;;;;;;;;;21.83;22.54;96266.16;10454195;28;1940;-57
2022/03/09 09:43:09;;;;;;;;;;;;;;;21.85;22.45;96269.31;10438310;28;2006;-57
2022/03/09 09:48:10;;;;;;;;;;;;;;;21.90;22.45;96268.50;10435990;28;1821;-58
2022/03/09 09:53:11;;;;;;;;;;;;;;;21.91;22.45;96270.09;10432301;28;1788;-56
2022/03/09 09:58:11;;;;;;;;;;;;;;;21.91;22.51;96260.31;10437402;28;1810;-57
2022/03/09 10:03:11;;;;;;;;;;;;;;;21.94;22.55;96254.50;10433258;28;1910;-55
2022/03/09 10:08:15;;;;;;;;;;;;;;;21.97;22.89;96255.81;10440064;28;1859;-58
2022/03/09 10:13:16;;;;;;;;;;;;;;;21.99;22.61;96256.34;10432556;28;1936;-58
2022/03/09 10:18:17;;;;;;;;;;;;;;;21.96;22.71;96255.03;10423408;28;1909;-57
2022/03/09 10:23:17;;;;;;;;;;;;;;;22.00;22.76;96256.06;10427383;28;1914;-55
2022/03/09 10:28:18;;;;;;;;;;;;;;;22.01;22.77;96254.22;10431409;28;1731;-57
2022/03/09 10:33:18;;;;;;;;;;;;;;;22.02;22.71;96266.34;10431243;28;1509;-56
2022/03/09 10:38:23;;;;;;;;;;;;;;;21.99;22.50;96251.84;10431531;28;1431;-54
2022/03/09 10:43:28;;;;;;;;;;;;;;;21.95;22.31;96245.50;10444382;28;1910;-53
2022/03/09 10:48:43;;;;;;;;;;;;;;;21.92;22.17;96255.84;10427801;28;1913;-55
2022/03/09 10:53:45;;;;;;;;;;;;;;;21.95;22.45;96244.75;10420071;28;1830;-57
2022/03/09 10:58:45;;;;;;;;;;;;;;;21.97;22.37;96242.63;10414971;28;1736;-56
2022/03/09 11:03:46;;;;;;;;;;;;;;;21.93;22.64;96237.06;10426347;28;1906;-56
2022/03/09 11:08:46;;;;;;;;;;;;;;;21.92;22.95;96235.50;10429309;28;1914;-62
2022/03/09 11:13:46;;;;;;;;;;;;;;;21.96;23.62;96239.19;10418074;28;1803;-56
2022/03/09 11:18:47;;;;;;;;;;;;;;;21.99;23.96;96236.00;10424315;28;1829;-57
2022/03/09 11:23:47;;;;;;;;;;;;;;;21.99;23.60;96237.88;10420010;28;1918;-54
2022/03/09 11:28:47;;;;;;;;;;;;;;;22.02;23.71;96238.09;10440742;28;1852;-55
2022/03/09 11:33:49;;;;;;;;;;;;;;;22.01;23.73;96223.31;10459467;28;1896;-54
2022/03/09 11:38:52;;;;;;;;;;;;;;;21.98;23.80;96218.59;10448904;28;1835;-56
2022/03/09 11:43:53;;;;;;;;;;;;;;;21.97;23.46;96227.56;10453713;28;1975;-52
2022/03/09 11:48:57;;;;;;;;;;;;;;;21.98;23.53;96215.97;10444081;28;1975;-54
2022/03/09 11:59:08;;;;;;;;;;;;;;;22.01;24.07;96206.72;10443652;28;2224;-47
2022/03/09 12:04:29;;;;;;;;;;;;;;;22.14;24.10;96211.38;10427657;28;1910;-50
2022/03/09 12:09:48;;;;;;;;;;;;;;;22.22;23.81;96213.44;10423402;28;1862;-44
2022/03/09 12:14:58;;;;;;;;;;;;;;;22.27;24.17;96201.03;10428620;28;1840;-46
2022/03/09 12:20:15;;;;;;;;;;;;;;;22.33;24.02;96189.38;10444903;28;1890;-48
2022/03/09 12:25:34;;;;;;;;;;;;;;;22.39;24.08;96190.09;10423642;28;1824;-51
2022/03/09 12:30:37;;;;;;;;;;;;;;;22.44;24.08;96190.84;10419482;28;1833;-46
2022/03/09 12:35:37;;;;;;;;;;;;;;;22.43;24.52;96191.94;10426047;28;1845;-44
2022/03/09 12:40:38;;;;;;;;;;;;;;;22.48;24.16;96186.59;10436633;28;1922;-46
2022/03/09 12:45:49;;;;;;;;;;;;;;;22.51;24.25;96190.56;10440436;28;1865;-42
2022/03/09 12:50:50;;;;;;;;;;;;;;;22.50;24.62;96181.84;10421718;28;1841;-46
2022/03/09 12:55:50;;;;;;;;;;;;;;;22.52;24.80;96174.41;10438846;28;1895;-46
2022/03/09 13:01:01;;;;;;;;;;;;;;;22.54;24.73;96166.25;10436537;28;1967;-41
2022/03/09 13:06:24;;;;;;;;;;;;;;;22.56;24.35;96164.09;10444108;28;1900;-45
2022/03/09 13:11:35;;;;;;;;;;;;;;;22.54;24.53;96151.19;10428516;28;1804;-46
2022/03/09 13:16:35;;;;;;;;;;;;;;;22.56;24.49;96146.41;10422459;28;1900;-48
2022/03/09 13:21:36;;;;;;;;;;;;;;;22.55;24.44;96147.47;10405917;28;1939;-46
2022/03/09 13:26:36;;;;;;;;;;;;;;;22.58;24.44;96144.31;10421309;28;1931;-49
2022/03/09 13:31:44;;;;;;;;;;;;;;;22.56;24.97;96146.41;10422853;28;1876;-46
2022/03/09 13:36:44;;;;;;;;;;;;;;;22.60;25.14;96136.09;10424740;28;1870;-45
2022/03/09 13:41:44;;;;;;;;;;;;;;;22.62;24.92;96145.34;10436404;28;1977;-51
2022/03/09 13:46:58;;;;;;;;;;;;;;;22.64;24.87;96137.91;10421770;28;1846;-44
2022/03/09 13:51:59;;;;;;;;;;;;;;;22.63;24.92;96141.59;10404105;28;1799;-48
2022/03/09 13:57:00;;;;;;;;;;;;;;;22.63;25.02;96138.16;10439700;28;1866;-50
2022/03/09 14:02:01;;;;;;;;;;;;;;;22.67;25.01;96140.00;10440600;28;1910;-48
2022/03/09 14:07:02;;;;;;;;;;;;;;;22.46;22.92;96137.78;10440226;28;1845;-43
2022/03/09 14:12:15;;;;;;;;;;;;;;;22.44;24.30;96132.75;10434486;28;2353;-44
2022/03/09 14:17:15;;;;;;;;;;;;;;;22.47;24.27;96137.50;10406699;28;2208;-43
2022/03/09 14:22:15;;;;;;;;;;;;;;;22.47;24.58;96142.78;10412254;28;2006;-48
2022/03/09 14:27:16;;;;;;;;;;;;;;;22.46;24.50;96138.53;10434516;28;1818;-48
2022/03/09 14:32:16;;;;;;;;;;;;;;;22.43;24.28;96135.66;10433994;28;1806;-49
2022/03/09 14:37:16;;;;;;;;;;;;;;;22.44;24.20;96135.38;10415492;28;1878;-43
2022/03/09 14:42:17;;;;;;;;;;;;;;;22.47;24.28;96140.13;10417020;28;1961;-42
2022/03/09 14:47:17;;;;;;;;;;;;;;;22.48;24.19;96141.69;10415812;28;1810;-43
2022/03/09 14:52:17;;;;;;;;;;;;;;;22.45;23.98;96136.97;10416429;28;1844;-44
2022/03/09 14:57:18;;;;;;;;;;;;;;;22.43;24.06;96139.09;10419320;28;1902;-48
2022/03/09 15:02:19;;;;;;;;;;;;;;;22.41;24.15;96133.31;10416079;28;2058;-45
2022/03/09 15:07:22;;;;;;;;;;;;;;;22.46;24.15;96137.78;10438749;28;1850;-48
2022/03/09 15:12:22;;;;;;;;;;;;;;;22.44;24.25;96127.47;10438686;28;1892;-46
2022/03/09 15:17:23;;;;;;;;;;;;;;;22.41;24.56;96130.66;10423043;28;1900;-47
2022/03/09 15:22:23;;;;;;;;;;;;;;;22.43;24.70;96130.38;10422398;28;1961;-42
2022/03/09 15:27:23;;;;;;;;;;;;;;;22.49;24.88;96135.34;10447756;28;1913;-45
2022/03/09 15:32:24;;;;;;;;;;;;;;;22.50;25.22;96131.63;10427130;28;1871;-47
2022/03/09 15:37:24;;;;;;;;;;;;;;;22.53;25.25;96141.66;10442613;28;1892;-45
2022/03/09 15:42:25;;;;;;;;;;;;;;;22.54;25.34;96140.63;10426720;28;1906;-46
2022/03/09 15:47:26;;;;;;;;;;;;;;;22.50;24.83;96139.56;10425684;28;2307;-41
2022/03/09 15:52:26;;;;;;;;;;;;;;;22.48;24.95;96144.34;10441758;28;1861;-43
2022/03/09 15:57:27;;;;;;;;;;;;;;;22.49;25.10;96135.34;10423945;28;1804;-43
2022/03/09 16:02:28;;;;;;;;;;;;;;;22.52;25.06;96140.06;10419083;28;1971;-45
2022/03/09 16:07:28;;;;;;;;;;;;;;;22.55;25.29;96133.47;10423593;28;2162;-43
2022/03/09 16:12:28;;;;;;;;;;;;;;;22.56;25.00;96141.13;10416515;28;1937;-44
2022/03/09 16:17:29;;;;;;;;;;;;;;;22.55;25.24;96142.19;10415069;28;1997;-45
2022/03/09 16:22:29;;;;;;;;;;;;;;;22.56;25.42;96146.41;10419849;28;1977;-43
2022/03/09 16:27:30;;;;;;;;;;;;;;;22.56;25.17;96146.41;10415856;28;1871;-41
2022/03/09 16:32:31;;;;;;;;;;;;;;;22.57;25.44;96147.19;10423378;28;1881;-41
2022/03/09 16:37:31;;;;;;;;;;;;;;;22.54;25.35;96153.81;10433139;28;1874;-45
2022/03/09 16:42:31;;;;;;;;;;;;;;;22.56;25.52;96164.09;10438200;28;1989;-46
2022/03/09 16:47:32;;;;;;;;;;;;;;;22.58;25.47;96160.16;10437288;28;1882;-47
2022/03/09 16:52:32;;;;;;;;;;;;;;;22.61;25.33;96164.09;10440610;28;1822;-45
2022/03/09 16:57:33;;;;;;;;;;;;;;;22.60;25.55;96170.44;10438216;28;1841;-47
2022/03/09 17:02:33;;;;;;;;;;;;;;;22.62;25.22;96170.97;10418866;28;1894;-43
2022/03/09 17:07:34;;;;;;;;;;;;;;;22.62;25.52;96171.75;10437274;28;1872;-44
2022/03/09 17:12:37;;;;;;;;;;;;;;;22.63;25.53;96183.88;10437062;28;1861;-43
2022/03/09 17:17:37;;;;;;;;;;;;;;;22.67;25.07;96193.91;10418150;28;1994;-50
2022/03/09 17:22:37;;;;;;;;;;;;;;;22.65;25.05;96188.88;10420915;28;1914;-49
2022/03/09 17:27:38;;;;;;;;;;;;;;;22.64;25.05;96196.06;10423380;28;2152;-52
2022/03/09 17:32:39;;;;;;;;;;;;;;;22.62;25.30;96206.09;10418662;28;1809;-48
2022/03/09 17:37:40;;;;;;;;;;;;;;;22.65;25.36;96205.53;10419880;28;1846;-44
2022/03/09 17:42:42;;;;;;;;;;;;;;;22.67;25.34;96210.53;10437260;28;1902;-48
2022/03/09 17:47:43;;;;;;;;;;;;;;;22.67;25.14;96215.81;10437895;28;1782;-47
2022/03/09 17:52:44;;;;;;;;;;;;;;;22.67;25.10;96221.13;10417565;28;1854;-43
2022/03/09 17:57:46;;;;;;;;;;;;;;;22.68;25.15;96225.34;10422458;28;1858;-41
2022/03/09 18:02:46;;;;;;;;;;;;;;;22.70;25.10;96225.06;10418009;28;1963;-47
2022/03/09 18:07:47;;;;;;;;;;;;;;;22.71;25.28;96224.00;10435735;28;1948;-42
2022/03/09 18:12:47;;;;;;;;;;;;;;;22.71;25.01;96231.94;10416095;28;1996;-46
2022/03/09 18:17:47;;;;;;;;;;;;;;;22.69;24.95;96228.78;10418101;28;1902;-42
2022/03/09 18:22:48;;;;;;;;;;;;;;;22.72;24.71;96229.03;10406339;28;1927;-48
2022/03/09 18:27:48;;;;;;;;;;;;;;;22.69;24.22;96234.06;10411075;28;1974;-47
2022/03/09 18:32:49;;;;;;;;;;;;;;;22.64;23.82;96235.69;10435431;28;1750;-48
2022/03/09 18:37:49;;;;;;;;;;;;;;;22.61;23.85;96244.16;10416146;28;1856;-51
2022/03/09 18:42:50;;;;;;;;;;;;;;;22.61;24.11;96232.78;10425168;28;1961;-49
2022/03/09 18:47:50;;;;;;;;;;;;;;;22.57;25.17;96245.72;10474350;23;2340;-75
2022/03/09 18:52:51;;;;;;;;;;;;;;;22.57;25.25;96243.09;10482300;28;1925;-76
2022/03/09 18:57:51;;;;;;;;;;;;;;;22.60;25.04;96244.44;10445077;28;1867;-77
2022/03/09 19:02:52;;;;;;;;;;;;;;;22.58;25.06;96252.63;10480467;28;1914;-74
2022/03/09 19:07:53;;;;;;;;;;;;;;;22.54;25.24;96261.34;10462901;28;1940;-74
2022/03/09 19:12:53;;;;;;;;;;;;;;;22.56;24.28;96257.38;10468653;28;1780;-73
2022/03/09 19:17:54;;;;;;;;;;;;;;;22.55;23.71;96261.06;10450481;28;1769;-74
2022/03/09 19:22:55;;;;;;;;;;;;;;;22.51;23.56;96256.59;10451836;28;1973;-73
2022/03/09 19:27:56;;;;;;;;;;;;;;;22.51;23.75;96257.41;10464020;28;1917;-73
2022/03/09 19:32:56;;;;;;;;;;;;;;;22.55;24.16;96262.91;10454971;28;1853;-75
2022/03/09 19:37:56;;;;;;;;;;;;;;;22.57;24.36;96269.50;10485179;28;1901;-71
2022/03/09 19:42:57;;;;;;;;;;;;;;;22.57;24.60;96280.06;10466384;28;1948;-72
2022/03/09 19:47:57;;;;;;;;;;;;;;;22.59;24.56;96275.34;10463819;28;1883;-73
2022/03/09 19:52:57;;;;;;;;;;;;;;;22.56;25.12;96286.44;10447331;28;1881;-75
2022/03/09 19:57:58;;;;;;;;;;;;;;;22.50;25.47;96284.09;10453842;28;1869;-75
2022/03/09 20:02:59;;;;;;;;;;;;;;;22.47;25.78;96282.78;10462616;28;1935;-72
2022/03/09 20:08:04;;;;;;;;;;;;;;;22.46;26.03;96280.41;10460289;28;2317;-74
2022/03/09 20:13:04;;;;;;;;;;;;;;;22.52;25.82;96288.03;10451164;28;1879;-73
2022/03/09 20:18:06;;;;;;;;;;;;;;;22.50;25.94;96290.16;10436651;28;1787;-74
2022/03/09 20:23:06;;;;;;;;;;;;;;;22.49;25.95;96288.59;10453902;28;1967;-74
2022/03/09 20:28:07;;;;;;;;;;;;;;;22.49;26.02;96301.00;10451009;28;1784;-72
2022/03/09 20:33:08;;;;;;;;;;;;;;;22.22;22.99;96298.75;10453333;28;1965;-72
2022/03/09 20:38:08;;;;;;;;;;;;;;;22.01;22.35;96297.22;10463755;28;2028;-72
2022/03/09 20:43:08;;;;;;;;;;;;;;;21.87;22.40;96306.78;10461241;28;2003;-71
2022/03/09 20:48:10;;;;;;;;;;;;;;;21.79;21.74;96309.94;10479038;22;2108;-57
2022/03/09 20:53:10;;;;;;;;;;;;;;;21.94;24.61;96302.03;10415313;28;1765;-54
2022/03/09 20:58:11;;;;;;;;;;;;;;;22.09;25.37;96311.75;10456265;28;1802;-55
2022/03/09 21:03:11;;;;;;;;;;;;;;;22.16;25.41;96313.03;10472829;28;1983;-54
2022/03/09 21:08:12;;;;;;;;;;;;;;;22.16;25.27;96313.03;10468613;28;1886;-56
2022/03/09 21:13:13;;;;;;;;;;;;;;;22.17;25.31;96319.91;10469684;28;1813;-55
2022/03/09 21:18:13;;;;;;;;;;;;;;;22.17;25.14;96321.75;10453440;28;1760;-55
2022/03/09 21:23:13;;;;;;;;;;;;;;;22.19;25.11;96317.00;10462110;28;1985;-55
2022/03/09 21:28:15;;;;;;;;;;;;;;;22.18;25.17;96310.91;10473458;28;1936;-55
2022/03/09 21:33:15;;;;;;;;;;;;;;;22.15;24.91;96318.59;10453533;28;2116;-56
2022/03/09 21:38:15;;;;;;;;;;;;;;;22.17;24.86;96316.47;10452520;28;1808;-57
2022/03/09 21:43:16;;;;;;;;;;;;;;;22.17;24.70;96321.75;10433746;28;1906;-55
2022/03/09 21:48:16;;;;;;;;;;;;;;;22.09;24.91;96331.00;10467330;28;2028;-56
2022/03/09 21:53:17;;;;;;;;;;;;;;;22.09;24.59;96328.34;10454734;28;1823;-54
2022/03/09 21:58:18;;;;;;;;;;;;;;;22.08;24.71;96333.91;10476727;28;1896;-56
2022/03/09 22:03:18;;;;;;;;;;;;;;;22.01;24.67;96334.19;10458482;28;1917;-54
2022/03/09 22:08:19;;;;;;;;;;;;;;;22.00;24.54;96319.44;10449825;28;1847;-55
2022/03/09 22:13:19;;;;;;;;;;;;;;;21.95;24.71;96332.63;10451934;28;1871;-55
2022/03/09 22:18:20;;;;;;;;;;;;;;;21.85;24.59;96340.56;10455773;28;1761;-57
2022/03/09 22:23:20;;;;;;;;;;;;;;;21.86;24.72;96336.88;10473584;28;1975;-57
2022/03/09 22:28:21;;;;;;;;;;;;;;;21.77;24.65;96331.31;10479254;28;1516;-56
2022/03/09 22:33:21;;;;;;;;;;;;;;;21.76;24.51;96328.97;10476138;28;1481;-54
2022/03/09 22:38:21;;;;;;;;;;;;;;;21.71;24.35;96331.59;10479510;28;1464;-55
2022/03/09 22:43:22;;;;;;;;;;;;;;;21.66;24.67;96331.59;10475360;28;1910;-56
2022/03/09 22:48:23;;;;;;;;;;;;;;;21.63;24.39;96337.41;10482848;28;1814;-55
2022/03/09 22:53:24;;;;;;;;;;;;;;;21.55;24.44;96332.69;10464931;28;1852;-56
2022/03/09 22:58:25;;;;;;;;;;;;;;;21.53;24.42;96329.50;10459845;28;1855;-56
2022/03/09 23:03:25;;;;;;;;;;;;;;;21.52;24.36;96330.56;10457593;28;1969;-57
2022/03/09 23:08:25;;;;;;;;;;;;;;;21.46;24.55;96321.06;10453895;28;1866;-55
2022/03/09 23:13:25;;;;;;;;;;;;;;;21.42;24.49;96330.56;10450718;28;1842;-54
2022/03/09 23:18:26;;;;;;;;;;;;;;;21.44;24.61;96323.19;10459404;28;1880;-55
2022/03/09 23:23:28;;;;;;;;;;;;;;;21.40;24.38;96332.69;10460026;28;1967;-57
2022/03/09 23:28:28;;;;;;;;;;;;;;;21.40;24.44;96336.13;10468537;28;1844;-52
2022/03/09 23:33:28;;;;;;;;;;;;;;;21.41;24.24;96337.69;10461787;28;1889;-53
2022/03/09 23:38:29;;;;;;;;;;;;;;;21.37;24.23;96344.53;10470254;28;1904;-55
2022/03/09 23:43:30;;;;;;;;;;;;;;;21.34;24.38;96344.28;10480650;28;1977;-57
2022/03/09 23:48:31;;;;;;;;;;;;;;;21.36;24.29;96345.59;10480614;28;1933;-56
2022/03/09 23:53:31;;;;;;;;;;;;;;;21.40;24.05;96348.50;10478992;28;1846;-55
2022/03/09 23:58:32;;;;;;;;;;;;;;;21.41;23.84;96350.88;10484646;28;1854;-55
